Eisenstein, Wisconsin
Current Conditions -  °F | °C
As of 4:15 AM on Saturday 22 Nov 2014 (Local Time) from KPBH Reporting Station
Haze Haze  
Wind Chill: 20°   Ceiling: 600
Heat Index: 29°   Visibility: 5mi
Dew Point: 28°   Wind: 12mph
Humidity: 93%   Direction: 210°SSW
Pressure: 29.78"   Gusts: 20mph
Location:  45.9599°N, 90.2362°W
Report Text: KPBH 221015Z AUTO 21010G17KT 5SM BR OVC006 M01/M02 A2978 RMK AO2 T10151025
Loading
Personal Weather Stations






























Interactive Weather Map New forecast layout! Learn more

10-Day Weather Forecast

Advertisements
Track Severe Weather on mobile